sensor_id;sensor_type;location;lat;lon;timestamp;temperature;humidity
32506;DHT22;18955;51.224;8.482;2022-09-13T00:01:37;15.10;73.80
32506;DHT22;18955;51.224;8.482;2022-09-13T00:04:03;15.10;73.40
32506;DHT22;18955;51.224;8.482;2022-09-13T00:06:29;15.10;73.40
32506;DHT22;18955;51.224;8.482;2022-09-13T00:08:55;15.00;73.40
32506;DHT22;18955;51.224;8.482;2022-09-13T00:11:25;15.00;73.30
32506;DHT22;18955;51.224;8.482;2022-09-13T00:13:52;15.00;73.40
32506;DHT22;18955;51.224;8.482;2022-09-13T00:16:21;15.00;73.30
32506;DHT22;18955;51.224;8.482;2022-09-13T00:18:47;15.00;73.50
32506;DHT22;18955;51.224;8.482;2022-09-13T00:21:16;15.00;73.60
32506;DHT22;18955;51.224;8.482;2022-09-13T00:23:44;15.00;73.40
32506;DHT22;18955;51.224;8.482;2022-09-13T00:26:14;14.90;73.60
32506;DHT22;18955;51.224;8.482;2022-09-13T00:28:41;14.90;73.50
32506;DHT22;18955;51.224;8.482;2022-09-13T00:31:08;14.90;73.50
32506;DHT22;18955;51.224;8.482;2022-09-13T00:33:35;14.90;73.50
32506;DHT22;18955;51.224;8.482;2022-09-13T00:36:09;14.90;73.40
32506;DHT22;18955;51.224;8.482;2022-09-13T00:38:37;14.90;73.60
32506;DHT22;18955;51.224;8.482;2022-09-13T00:41:05;14.80;73.50
32506;DHT22;18955;51.224;8.482;2022-09-13T00:43:46;14.80;73.30
32506;DHT22;18955;51.224;8.482;2022-09-13T00:46:21;14.80;73.60
32506;DHT22;18955;51.224;8.482;2022-09-13T00:48:53;14.80;73.60
32506;DHT22;18955;51.224;8.482;2022-09-13T00:51:21;14.80;73.60
32506;DHT22;18955;51.224;8.482;2022-09-13T00:53:50;14.80;73.60
32506;DHT22;18955;51.224;8.482;2022-09-13T00:56:31;14.80;74.10
32506;DHT22;18955;51.224;8.482;2022-09-13T00:59:11;14.70;73.60
32506;DHT22;18955;51.224;8.482;2022-09-13T01:01:46;14.70;73.70
32506;DHT22;18955;51.224;8.482;2022-09-13T01:04:14;14.70;73.60
32506;DHT22;18955;51.224;8.482;2022-09-13T01:06:42;14.70;73.60
32506;DHT22;18955;51.224;8.482;2022-09-13T01:09:10;14.70;73.60
32506;DHT22;18955;51.224;8.482;2022-09-13T01:11:47;14.70;73.70
32506;DHT22;18955;51.224;8.482;2022-09-13T01:14:18;14.70;73.90
32506;DHT22;18955;51.224;8.482;2022-09-13T01:16:45;14.60;73.80
32506;DHT22;18955;51.224;8.482;2022-09-13T01:19:12;14.60;73.70
32506;DHT22;18955;51.224;8.482;2022-09-13T01:27:40;14.60;73.70
32506;DHT22;18955;51.224;8.482;2022-09-13T01:35:55;14.50;73.80
32506;DHT22;18955;51.224;8.482;2022-09-13T01:38:44;14.50;73.90
32506;DHT22;18955;51.224;8.482;2022-09-13T01:44:43;14.50;73.80
32506;DHT22;18955;51.224;8.482;2022-09-13T01:47:31;14.50;73.70
32506;DHT22;18955;51.224;8.482;2022-09-13T01:52:55;14.40;73.80
32506;DHT22;18955;51.224;8.482;2022-09-13T01:55:38;14.40;73.80
32506;DHT22;18955;51.224;8.482;2022-09-13T02:03:42;14.40;73.90
32506;DHT22;18955;51.224;8.482;2022-09-13T02:06:17;14.40;73.90
32506;DHT22;18955;51.224;8.482;2022-09-13T02:08:54;14.40;74.00
32506;DHT22;18955;51.224;8.482;2022-09-13T02:11:21;14.40;74.00
32506;DHT22;18955;51.224;8.482;2022-09-13T02:14:03;14.40;74.00
32506;DHT22;18955;51.224;8.482;2022-09-13T02:16:38;14.30;74.10
32506;DHT22;18955;51.224;8.482;2022-09-13T02:19:13;14.30;73.90
32506;DHT22;18955;51.224;8.482;2022-09-13T02:21:43;14.30;74.20
32506;DHT22;18955;51.224;8.482;2022-09-13T02:24:17;14.30;74.20
32506;DHT22;18955;51.224;8.482;2022-09-13T02:26:46;14.30;74.30
32506;DHT22;18955;51.224;8.482;2022-09-13T02:29:16;14.30;74.20
32506;DHT22;18955;51.224;8.482;2022-09-13T02:31:51;14.30;74.30
32506;DHT22;18955;51.224;8.482;2022-09-13T02:34:30;14.30;74.50
32506;DHT22;18955;51.224;8.482;2022-09-13T02:36:59;14.30;74.60
32506;DHT22;18955;51.224;8.482;2022-09-13T02:39:28;14.20;74.40
32506;DHT22;18955;51.224;8.482;2022-09-13T02:42:05;14.20;74.50
32506;DHT22;18955;51.224;8.482;2022-09-13T02:44:43;14.20;74.50
32506;DHT22;18955;51.224;8.482;2022-09-13T02:52:42;14.20;74.60
32506;DHT22;18955;51.224;8.482;2022-09-13T02:55:30;14.20;74.60
32506;DHT22;18955;51.224;8.482;2022-09-13T02:58:17;14.20;74.60
32506;DHT22;18955;51.224;8.482;2022-09-13T03:00:45;14.20;74.60
32506;DHT22;18955;51.224;8.482;2022-09-13T03:03:14;14.20;74.60
32506;DHT22;18955;51.224;8.482;2022-09-13T03:05:41;14.10;74.60
32506;DHT22;18955;51.224;8.482;2022-09-13T03:08:10;14.20;74.90
32506;DHT22;18955;51.224;8.482;2022-09-13T03:13:39;14.10;74.50
32506;DHT22;18955;51.224;8.482;2022-09-13T03:16:42;14.10;74.70
32506;DHT22;18955;51.224;8.482;2022-09-13T03:19:46;14.10;74.50
32506;DHT22;18955;51.224;8.482;2022-09-13T03:25:29;14.10;74.70
32506;DHT22;18955;51.224;8.482;2022-09-13T03:31:28;14.10;74.60
32506;DHT22;18955;51.224;8.482;2022-09-13T03:34:13;14.10;74.70
32506;DHT22;18955;51.224;8.482;2022-09-13T03:36:53;14.10;74.70
32506;DHT22;18955;51.224;8.482;2022-09-13T03:39:38;14.10;74.70
32506;DHT22;18955;51.224;8.482;2022-09-13T03:42:15;14.10;74.80
32506;DHT22;18955;51.224;8.482;2022-09-13T03:44:45;14.10;75.00
32506;DHT22;18955;51.224;8.482;2022-09-13T03:47:13;14.00;74.90
32506;DHT22;18955;51.224;8.482;2022-09-13T03:49:41;14.00;74.60
32506;DHT22;18955;51.224;8.482;2022-09-13T03:52:08;14.10;74.90
32506;DHT22;18955;51.224;8.482;2022-09-13T03:54:36;14.10;74.70
32506;DHT22;18955;51.224;8.482;2022-09-13T03:59:46;14.10;74.90
32506;DHT22;18955;51.224;8.482;2022-09-13T04:02:14;14.10;74.70
32506;DHT22;18955;51.224;8.482;2022-09-13T04:04:41;14.00;74.80
32506;DHT22;18955;51.224;8.482;2022-09-13T04:07:10;14.00;74.80
32506;DHT22;18955;51.224;8.482;2022-09-13T04:09:36;14.00;74.60
32506;DHT22;18955;51.224;8.482;2022-09-13T04:12:03;14.00;74.80
32506;DHT22;18955;51.224;8.482;2022-09-13T04:14:29;14.00;74.70
32506;DHT22;18955;51.224;8.482;2022-09-13T04:16:56;14.00;74.60
32506;DHT22;18955;51.224;8.482;2022-09-13T04:19:23;14.00;74.60
32506;DHT22;18955;51.224;8.482;2022-09-13T04:21:51;14.00;74.70
32506;DHT22;18955;51.224;8.482;2022-09-13T04:24:18;14.00;74.80
32506;DHT22;18955;51.224;8.482;2022-09-13T04:26:49;14.00;74.80
32506;DHT22;18955;51.224;8.482;2022-09-13T04:29:20;14.00;74.60
32506;DHT22;18955;51.224;8.482;2022-09-13T04:31:47;14.00;74.60
32506;DHT22;18955;51.224;8.482;2022-09-13T04:34:14;14.00;74.70
32506;DHT22;18955;51.224;8.482;2022-09-13T04:36:40;14.00;74.70
32506;DHT22;18955;51.224;8.482;2022-09-13T04:39:06;14.00;74.80
32506;DHT22;18955;51.224;8.482;2022-09-13T04:41:32;14.00;74.60
32506;DHT22;18955;51.224;8.482;2022-09-13T04:44:02;14.00;74.80
32506;DHT22;18955;51.224;8.482;2022-09-13T04:46:28;14.00;74.80
32506;DHT22;18955;51.224;8.482;2022-09-13T04:48:55;14.00;74.60
32506;DHT22;18955;51.224;8.482;2022-09-13T04:51:21;14.00;74.70
32506;DHT22;18955;51.224;8.482;2022-09-13T04:53:52;14.00;74.60
32506;DHT22;18955;51.224;8.482;2022-09-13T04:56:23;14.00;74.60
32506;DHT22;18955;51.224;8.482;2022-09-13T04:58:50;14.00;74.50
32506;DHT22;18955;51.224;8.482;2022-09-13T05:01:17;14.00;74.60
32506;DHT22;18955;51.224;8.482;2022-09-13T05:03:43;14.00;74.70
32506;DHT22;18955;51.224;8.482;2022-09-13T05:06:12;14.00;74.50
32506;DHT22;18955;51.224;8.482;2022-09-13T05:08:39;14.00;74.60
32506;DHT22;18955;51.224;8.482;2022-09-13T05:11:05;14.00;74.60
32506;DHT22;18955;51.224;8.482;2022-09-13T05:13:31;14.00;74.60
32506;DHT22;18955;51.224;8.482;2022-09-13T05:16:04;14.00;74.80
32506;DHT22;18955;51.224;8.482;2022-09-13T05:18:33;14.00;74.70
32506;DHT22;18955;51.224;8.482;2022-09-13T05:21:01;14.00;74.90
32506;DHT22;18955;51.224;8.482;2022-09-13T05:23:28;14.00;74.90
32506;DHT22;18955;51.224;8.482;2022-09-13T05:26:00;14.00;74.80
32506;DHT22;18955;51.224;8.482;2022-09-13T05:28:28;14.00;74.60
32506;DHT22;18955;51.224;8.482;2022-09-13T05:31:03;14.00;74.80
32506;DHT22;18955;51.224;8.482;2022-09-13T05:33:32;14.00;74.90
32506;DHT22;18955;51.224;8.482;2022-09-13T05:35:59;14.00;74.80
32506;DHT22;18955;51.224;8.482;2022-09-13T05:38:25;14.00;74.60
32506;DHT22;18955;51.224;8.482;2022-09-13T05:40:56;14.00;74.80
32506;DHT22;18955;51.224;8.482;2022-09-13T05:43:30;14.00;75.10
32506;DHT22;18955;51.224;8.482;2022-09-13T05:46:13;14.00;75.00
32506;DHT22;18955;51.224;8.482;2022-09-13T05:48:40;14.00;75.00
32506;DHT22;18955;51.224;8.482;2022-09-13T05:51:10;14.00;74.90
32506;DHT22;18955;51.224;8.482;2022-09-13T05:53:38;14.00;75.80
32506;DHT22;18955;51.224;8.482;2022-09-13T05:56:06;14.00;75.50
32506;DHT22;18955;51.224;8.482;2022-09-13T05:58:32;14.00;75.20
32506;DHT22;18955;51.224;8.482;2022-09-13T06:01:00;14.00;76.00
32506;DHT22;18955;51.224;8.482;2022-09-13T06:03:26;14.00;75.40
32506;DHT22;18955;51.224;8.482;2022-09-13T06:05:56;14.00;75.30
32506;DHT22;18955;51.224;8.482;2022-09-13T06:08:24;14.00;75.10
32506;DHT22;18955;51.224;8.482;2022-09-13T06:11:17;14.00;75.30
32506;DHT22;18955;51.224;8.482;2022-09-13T06:13:43;14.00;75.30
32506;DHT22;18955;51.224;8.482;2022-09-13T06:16:11;14.00;75.30
32506;DHT22;18955;51.224;8.482;2022-09-13T06:18:38;14.00;75.40
32506;DHT22;18955;51.224;8.482;2022-09-13T06:21:10;14.00;75.50
32506;DHT22;18955;51.224;8.482;2022-09-13T06:23:37;14.00;75.30
32506;DHT22;18955;51.224;8.482;2022-09-13T06:26:06;14.00;75.40
32506;DHT22;18955;51.224;8.482;2022-09-13T06:28:33;14.00;75.30
32506;DHT22;18955;51.224;8.482;2022-09-13T06:31:18;14.00;75.40
32506;DHT22;18955;51.224;8.482;2022-09-13T06:33:45;14.00;75.40
32506;DHT22;18955;51.224;8.482;2022-09-13T06:36:16;14.00;75.40
32506;DHT22;18955;51.224;8.482;2022-09-13T06:38:47;14.00;75.60
32506;DHT22;18955;51.224;8.482;2022-09-13T06:41:18;14.00;75.50
32506;DHT22;18955;51.224;8.482;2022-09-13T06:43:46;14.00;75.60
32506;DHT22;18955;51.224;8.482;2022-09-13T06:46:17;14.00;75.40
32506;DHT22;18955;51.224;8.482;2022-09-13T06:48:44;14.10;75.50
32506;DHT22;18955;51.224;8.482;2022-09-13T06:51:13;14.00;75.40
32506;DHT22;18955;51.224;8.482;2022-09-13T06:53:41;14.00;75.40
32506;DHT22;18955;51.224;8.482;2022-09-13T06:58:37;14.00;75.30
32506;DHT22;18955;51.224;8.482;2022-09-13T07:03:56;14.00;75.60
32506;DHT22;18955;51.224;8.482;2022-09-13T07:06:24;14.10;75.50
32506;DHT22;18955;51.224;8.482;2022-09-13T07:08:53;14.10;75.50
32506;DHT22;18955;51.224;8.482;2022-09-13T07:11:25;14.10;75.60
32506;DHT22;18955;51.224;8.482;2022-09-13T07:13:53;14.10;75.80
32506;DHT22;18955;51.224;8.482;2022-09-13T07:16:23;14.10;75.60
32506;DHT22;18955;51.224;8.482;2022-09-13T07:19:00;14.10;75.40
32506;DHT22;18955;51.224;8.482;2022-09-13T07:21:27;14.10;75.30
32506;DHT22;18955;51.224;8.482;2022-09-13T07:23:55;14.10;75.90
32506;DHT22;18955;51.224;8.482;2022-09-13T07:26:21;14.10;75.60
32506;DHT22;18955;51.224;8.482;2022-09-13T07:28:51;14.10;75.10
32506;DHT22;18955;51.224;8.482;2022-09-13T07:31:20;14.10;75.10
32506;DHT22;18955;51.224;8.482;2022-09-13T07:33:47;14.10;75.10
32506;DHT22;18955;51.224;8.482;2022-09-13T07:36:17;14.10;75.10
32506;DHT22;18955;51.224;8.482;2022-09-13T07:38:44;14.10;75.10
32506;DHT22;18955;51.224;8.482;2022-09-13T07:41:12;14.10;75.20
32506;DHT22;18955;51.224;8.482;2022-09-13T07:43:38;14.10;75.70
32506;DHT22;18955;51.224;8.482;2022-09-13T07:46:07;14.10;75.30
32506;DHT22;18955;51.224;8.482;2022-09-13T07:48:37;14.20;75.40
32506;DHT22;18955;51.224;8.482;2022-09-13T07:51:06;14.20;75.40
32506;DHT22;18955;51.224;8.482;2022-09-13T07:53:34;14.20;75.60
32506;DHT22;18955;51.224;8.482;2022-09-13T07:56:06;14.20;75.40
32506;DHT22;18955;51.224;8.482;2022-09-13T07:58:33;14.20;76.00
32506;DHT22;18955;51.224;8.482;2022-09-13T08:01:04;14.20;75.90
32506;DHT22;18955;51.224;8.482;2022-09-13T08:03:34;14.20;75.90
32506;DHT22;18955;51.224;8.482;2022-09-13T08:06:01;14.20;75.90
32506;DHT22;18955;51.224;8.482;2022-09-13T08:08:28;14.20;75.80
32506;DHT22;18955;51.224;8.482;2022-09-13T08:10:54;14.30;75.90
32506;DHT22;18955;51.224;8.482;2022-09-13T08:13:20;14.30;76.00
32506;DHT22;18955;51.224;8.482;2022-09-13T08:15:47;14.30;76.00
32506;DHT22;18955;51.224;8.482;2022-09-13T08:18:18;14.30;75.90
32506;DHT22;18955;51.224;8.482;2022-09-13T08:20:44;14.30;75.80
32506;DHT22;18955;51.224;8.482;2022-09-13T08:23:13;14.30;75.70
32506;DHT22;18955;51.224;8.482;2022-09-13T08:25:39;14.30;75.60
32506;DHT22;18955;51.224;8.482;2022-09-13T08:28:15;14.40;75.50
32506;DHT22;18955;51.224;8.482;2022-09-13T08:30:42;14.40;75.50
32506;DHT22;18955;51.224;8.482;2022-09-13T08:33:10;14.40;75.30
32506;DHT22;18955;51.224;8.482;2022-09-13T08:35:36;14.40;75.30
32506;DHT22;18955;51.224;8.482;2022-09-13T08:38:04;14.40;75.20
32506;DHT22;18955;51.224;8.482;2022-09-13T08:40:40;14.40;75.10
32506;DHT22;18955;51.224;8.482;2022-09-13T08:43:42;14.40;75.00
32506;DHT22;18955;51.224;8.482;2022-09-13T08:48:43;14.50;75.40
32506;DHT22;18955;51.224;8.482;2022-09-13T08:53:52;14.50;74.90
32506;DHT22;18955;51.224;8.482;2022-09-13T08:56:28;14.50;74.80
32506;DHT22;18955;51.224;8.482;2022-09-13T09:02:06;14.50;74.70
32506;DHT22;18955;51.224;8.482;2022-09-13T09:04:46;14.60;74.60
32506;DHT22;18955;51.224;8.482;2022-09-13T09:07:16;14.60;74.60
32506;DHT22;18955;51.224;8.482;2022-09-13T09:09:55;14.60;74.60
32506;DHT22;18955;51.224;8.482;2022-09-13T09:15:20;14.70;74.60
32506;DHT22;18955;51.224;8.482;2022-09-13T09:20:44;14.70;74.70
32506;DHT22;18955;51.224;8.482;2022-09-13T09:23:16;14.70;74.50
32506;DHT22;18955;51.224;8.482;2022-09-13T09:25:42;14.80;74.60
32506;DHT22;18955;51.224;8.482;2022-09-13T09:28:12;14.80;74.50
32506;DHT22;18955;51.224;8.482;2022-09-13T09:36:26;14.90;74.50
32506;DHT22;18955;51.224;8.482;2022-09-13T09:38:55;14.90;74.60
32506;DHT22;18955;51.224;8.482;2022-09-13T09:41:33;14.90;74.60
32506;DHT22;18955;51.224;8.482;2022-09-13T09:46:37;14.90;74.40
32506;DHT22;18955;51.224;8.482;2022-09-13T09:52:04;15.00;74.50
32506;DHT22;18955;51.224;8.482;2022-09-13T09:54:33;15.00;74.50
32506;DHT22;18955;51.224;8.482;2022-09-13T09:57:00;15.00;74.40
32506;DHT22;18955;51.224;8.482;2022-09-13T09:59:29;15.00;74.60
32506;DHT22;18955;51.224;8.482;2022-09-13T10:01:59;15.10;74.30
32506;DHT22;18955;51.224;8.482;2022-09-13T10:04:27;15.10;74.40
32506;DHT22;18955;51.224;8.482;2022-09-13T10:07:20;15.10;74.40
32506;DHT22;18955;51.224;8.482;2022-09-13T10:10:19;15.20;74.40
32506;DHT22;18955;51.224;8.482;2022-09-13T10:12:49;15.20;74.60
32506;DHT22;18955;51.224;8.482;2022-09-13T10:15:19;15.20;74.70
32506;DHT22;18955;51.224;8.482;2022-09-13T10:18:03;15.20;74.60
32506;DHT22;18955;51.224;8.482;2022-09-13T10:20:31;15.20;74.70
32506;DHT22;18955;51.224;8.482;2022-09-13T10:23:18;15.20;74.40
32506;DHT22;18955;51.224;8.482;2022-09-13T10:28:24;15.30;74.40
32506;DHT22;18955;51.224;8.482;2022-09-13T10:31:04;15.30;74.50
32506;DHT22;18955;51.224;8.482;2022-09-13T10:33:37;15.30;74.50
32506;DHT22;18955;51.224;8.482;2022-09-13T10:36:28;15.40;75.00
32506;DHT22;18955;51.224;8.482;2022-09-13T10:39:11;15.40;74.60
32506;DHT22;18955;51.224;8.482;2022-09-13T10:42:09;15.40;74.40
32506;DHT22;18955;51.224;8.482;2022-09-13T10:44:54;15.50;74.40
32506;DHT22;18955;51.224;8.482;2022-09-13T10:47:25;15.50;74.50
32506;DHT22;18955;51.224;8.482;2022-09-13T10:49:54;15.50;74.40
32506;DHT22;18955;51.224;8.482;2022-09-13T10:52:47;15.50;74.50
32506;DHT22;18955;51.224;8.482;2022-09-13T10:57:51;15.60;74.50
32506;DHT22;18955;51.224;8.482;2022-09-13T11:00:23;15.60;74.40
32506;DHT22;18955;51.224;8.482;2022-09-13T11:06:53;15.60;74.50
32506;DHT22;18955;51.224;8.482;2022-09-13T11:12:16;15.70;74.60
32506;DHT22;18955;51.224;8.482;2022-09-13T11:14:45;15.70;74.60
32506;DHT22;18955;51.224;8.482;2022-09-13T11:23:02;15.80;74.50
32506;DHT22;18955;51.224;8.482;2022-09-13T11:28:37;15.80;74.60
32506;DHT22;18955;51.224;8.482;2022-09-13T11:33:58;15.90;74.60
32506;DHT22;18955;51.224;8.482;2022-09-13T11:39:22;15.90;74.60
32506;DHT22;18955;51.224;8.482;2022-09-13T11:56:53;16.10;74.50
32506;DHT22;18955;51.224;8.482;2022-09-13T12:02:14;16.10;74.50
32506;DHT22;18955;51.224;8.482;2022-09-13T12:05:12;16.20;74.60
32506;DHT22;18955;51.224;8.482;2022-09-13T12:12:50;16.20;74.60
32506;DHT22;18955;51.224;8.482;2022-09-13T12:20:58;16.30;74.50
32506;DHT22;18955;51.224;8.482;2022-09-13T12:26:18;16.40;74.60
32506;DHT22;18955;51.224;8.482;2022-09-13T12:28:52;16.40;74.60
32506;DHT22;18955;51.224;8.482;2022-09-13T12:31:23;16.40;74.80
32506;DHT22;18955;51.224;8.482;2022-09-13T12:33:50;16.40;74.70
32506;DHT22;18955;51.224;8.482;2022-09-13T12:47:53;16.60;74.70
32506;DHT22;18955;51.224;8.482;2022-09-13T12:53:44;16.60;74.60
32506;DHT22;18955;51.224;8.482;2022-09-13T13:02:43;16.70;74.70
32506;DHT22;18955;51.224;8.482;2022-09-13T13:08:04;16.80;74.80
32506;DHT22;18955;51.224;8.482;2022-09-13T13:10:36;16.80;74.90
32506;DHT22;18955;51.224;8.482;2022-09-13T13:14:21;16.90;74.70
32506;DHT22;18955;51.224;8.482;2022-09-13T13:18:50;16.90;74.60
32506;DHT22;18955;51.224;8.482;2022-09-13T13:21:33;16.90;74.70
32506;DHT22;18955;51.224;8.482;2022-09-13T13:32:27;17.00;74.50
32506;DHT22;18955;51.224;8.482;2022-09-13T13:57:36;17.50;74.10
32506;DHT22;18955;51.224;8.482;2022-09-13T14:00:21;17.60;73.90
32506;DHT22;18955;51.224;8.482;2022-09-13T14:08:37;17.90;73.30
32506;DHT22;18955;51.224;8.482;2022-09-13T14:17:14;17.90;73.60
32506;DHT22;18955;51.224;8.482;2022-09-13T14:19:51;18.00;73.80
32506;DHT22;18955;51.224;8.482;2022-09-13T14:22:24;18.10;73.80
32506;DHT22;18955;51.224;8.482;2022-09-13T14:24:53;18.10;73.60
32506;DHT22;18955;51.224;8.482;2022-09-13T14:27:26;18.20;73.50
32506;DHT22;18955;51.224;8.482;2022-09-13T14:30:02;18.30;73.50
32506;DHT22;18955;51.224;8.482;2022-09-13T14:32:38;18.40;73.30
32506;DHT22;18955;51.224;8.482;2022-09-13T14:35:20;18.40;73.20
32506;DHT22;18955;51.224;8.482;2022-09-13T14:37:48;18.30;73.50
32506;DHT22;18955;51.224;8.482;2022-09-13T14:40:22;18.30;73.70
32506;DHT22;18955;51.224;8.482;2022-09-13T14:42:52;18.30;73.80
32506;DHT22;18955;51.224;8.482;2022-09-13T14:48:35;18.40;73.70
32506;DHT22;18955;51.224;8.482;2022-09-13T14:51:27;18.60;73.80
32506;DHT22;18955;51.224;8.482;2022-09-13T14:54:16;18.70;73.50
32506;DHT22;18955;51.224;8.482;2022-09-13T14:56:48;18.80;73.20
32506;DHT22;18955;51.224;8.482;2022-09-13T14:59:46;18.70;73.30
32506;DHT22;18955;51.224;8.482;2022-09-13T15:02:22;18.70;73.60
32506;DHT22;18955;51.224;8.482;2022-09-13T15:04:53;18.80;73.70
32506;DHT22;18955;51.224;8.482;2022-09-13T15:07:31;18.90;73.70
32506;DHT22;18955;51.224;8.482;2022-09-13T15:15:33;19.00;73.50
32506;DHT22;18955;51.224;8.482;2022-09-13T15:18:30;19.00;73.90
32506;DHT22;18955;51.224;8.482;2022-09-13T15:21:02;19.00;74.00
32506;DHT22;18955;51.224;8.482;2022-09-13T15:23:38;19.00;74.20
32506;DHT22;18955;51.224;8.482;2022-09-13T15:26:22;19.00;74.30
32506;DHT22;18955;51.224;8.482;2022-09-13T15:28:58;19.00;74.30
32506;DHT22;18955;51.224;8.482;2022-09-13T15:31:32;19.00;74.40
32506;DHT22;18955;51.224;8.482;2022-09-13T15:36:44;19.10;74.50
32506;DHT22;18955;51.224;8.482;2022-09-13T15:39:15;19.10;74.60
32506;DHT22;18955;51.224;8.482;2022-09-13T15:41:59;19.10;74.70
32506;DHT22;18955;51.224;8.482;2022-09-13T15:44:27;19.10;74.50
32506;DHT22;18955;51.224;8.482;2022-09-13T15:47:02;19.10;74.40
32506;DHT22;18955;51.224;8.482;2022-09-13T15:49:32;19.20;74.50
32506;DHT22;18955;51.224;8.482;2022-09-13T15:52:04;19.20;74.60
32506;DHT22;18955;51.224;8.482;2022-09-13T15:54:39;19.20;74.70
32506;DHT22;18955;51.224;8.482;2022-09-13T15:57:09;19.20;74.70
32506;DHT22;18955;51.224;8.482;2022-09-13T15:59:38;19.30;74.70
32506;DHT22;18955;51.224;8.482;2022-09-13T16:02:25;19.30;74.50
32506;DHT22;18955;51.224;8.482;2022-09-13T16:04:54;19.30;74.60
32506;DHT22;18955;51.224;8.482;2022-09-13T16:07:21;19.30;74.70
32506;DHT22;18955;51.224;8.482;2022-09-13T16:09:48;19.30;74.60
32506;DHT22;18955;51.224;8.482;2022-09-13T16:12:14;19.30;74.60
32506;DHT22;18955;51.224;8.482;2022-09-13T16:14:41;19.40;74.70
32506;DHT22;18955;51.224;8.482;2022-09-13T16:17:18;19.40;74.70
32506;DHT22;18955;51.224;8.482;2022-09-13T16:19:45;19.40;74.70
32506;DHT22;18955;51.224;8.482;2022-09-13T16:22:12;19.40;74.60
32506;DHT22;18955;51.224;8.482;2022-09-13T16:24:38;19.40;74.60
32506;DHT22;18955;51.224;8.482;2022-09-13T16:27:05;19.40;74.60
32506;DHT22;18955;51.224;8.482;2022-09-13T16:29:31;19.40;74.60
32506;DHT22;18955;51.224;8.482;2022-09-13T16:31:58;19.40;74.70
32506;DHT22;18955;51.224;8.482;2022-09-13T16:34:26;19.50;74.70
32506;DHT22;18955;51.224;8.482;2022-09-13T16:36:53;19.50;74.70
32506;DHT22;18955;51.224;8.482;2022-09-13T16:39:19;19.50;74.60
32506;DHT22;18955;51.224;8.482;2022-09-13T16:41:48;19.50;74.60
32506;DHT22;18955;51.224;8.482;2022-09-13T16:44:17;19.50;74.60
32506;DHT22;18955;51.224;8.482;2022-09-13T16:46:43;19.50;74.60
32506;DHT22;18955;51.224;8.482;2022-09-13T16:49:09;19.50;74.60
32506;DHT22;18955;51.224;8.482;2022-09-13T16:51:46;19.50;74.50
32506;DHT22;18955;51.224;8.482;2022-09-13T16:54:13;19.50;74.60
32506;DHT22;18955;51.224;8.482;2022-09-13T16:56:44;19.50;74.50
32506;DHT22;18955;51.224;8.482;2022-09-13T16:59:10;19.50;74.60
32506;DHT22;18955;51.224;8.482;2022-09-13T17:01:37;19.60;74.60
32506;DHT22;18955;51.224;8.482;2022-09-13T17:04:06;19.60;74.60
32506;DHT22;18955;51.224;8.482;2022-09-13T17:06:33;19.60;74.60
32506;DHT22;18955;51.224;8.482;2022-09-13T17:09:02;19.50;74.40
32506;DHT22;18955;51.224;8.482;2022-09-13T17:11:32;19.60;74.50
32506;DHT22;18955;51.224;8.482;2022-09-13T17:14:03;19.60;74.50
32506;DHT22;18955;51.224;8.482;2022-09-13T17:16:50;19.60;74.40
32506;DHT22;18955;51.224;8.482;2022-09-13T17:19:31;19.60;74.50
32506;DHT22;18955;51.224;8.482;2022-09-13T17:22:02;19.60;74.50
32506;DHT22;18955;51.224;8.482;2022-09-13T17:24:39;19.60;74.50
32506;DHT22;18955;51.224;8.482;2022-09-13T17:27:11;19.60;74.50
32506;DHT22;18955;51.224;8.482;2022-09-13T17:29:37;19.60;74.40
32506;DHT22;18955;51.224;8.482;2022-09-13T17:32:07;19.60;74.40
32506;DHT22;18955;51.224;8.482;2022-09-13T17:34:33;19.60;74.40
32506;DHT22;18955;51.224;8.482;2022-09-13T17:37:00;19.60;74.40
32506;DHT22;18955;51.224;8.482;2022-09-13T17:39:29;19.60;74.50
32506;DHT22;18955;51.224;8.482;2022-09-13T17:41:55;19.60;74.50
32506;DHT22;18955;51.224;8.482;2022-09-13T17:44:24;19.60;74.40
32506;DHT22;18955;51.224;8.482;2022-09-13T17:46:54;19.60;74.40
32506;DHT22;18955;51.224;8.482;2022-09-13T17:49:20;19.60;74.40
32506;DHT22;18955;51.224;8.482;2022-09-13T17:51:47;19.50;74.40
32506;DHT22;18955;51.224;8.482;2022-09-13T17:54:20;19.60;74.50
32506;DHT22;18955;51.224;8.482;2022-09-13T17:56:49;19.50;74.40
32506;DHT22;18955;51.224;8.482;2022-09-13T17:59:36;19.50;74.30
32506;DHT22;18955;51.224;8.482;2022-09-13T18:02:02;19.50;74.30
32506;DHT22;18955;51.224;8.482;2022-09-13T18:04:29;19.50;74.40
32506;DHT22;18955;51.224;8.482;2022-09-13T18:06:55;19.50;74.40
32506;DHT22;18955;51.224;8.482;2022-09-13T18:09:22;19.50;74.40
32506;DHT22;18955;51.224;8.482;2022-09-13T18:11:49;19.50;74.40
32506;DHT22;18955;51.224;8.482;2022-09-13T18:14:17;19.50;74.30
32506;DHT22;18955;51.224;8.482;2022-09-13T18:16:44;19.50;74.40
32506;DHT22;18955;51.224;8.482;2022-09-13T18:19:11;19.50;74.40
32506;DHT22;18955;51.224;8.482;2022-09-13T18:21:37;19.50;74.50
32506;DHT22;18955;51.224;8.482;2022-09-13T18:24:14;19.50;74.50
32506;DHT22;18955;51.224;8.482;2022-09-13T18:26:41;19.50;74.50
32506;DHT22;18955;51.224;8.482;2022-09-13T18:29:12;19.50;74.50
32506;DHT22;18955;51.224;8.482;2022-09-13T18:31:41;19.50;74.40
32506;DHT22;18955;51.224;8.482;2022-09-13T18:34:10;19.40;74.40
32506;DHT22;18955;51.224;8.482;2022-09-13T18:36:38;19.40;74.40
32506;DHT22;18955;51.224;8.482;2022-09-13T18:39:05;19.40;74.40
32506;DHT22;18955;51.224;8.482;2022-09-13T18:41:34;19.40;74.50
32506;DHT22;18955;51.224;8.482;2022-09-13T18:44:02;19.40;74.40
32506;DHT22;18955;51.224;8.482;2022-09-13T18:46:30;19.40;74.40
32506;DHT22;18955;51.224;8.482;2022-09-13T18:49:00;19.40;74.40
32506;DHT22;18955;51.224;8.482;2022-09-13T18:51:35;19.40;74.50
32506;DHT22;18955;51.224;8.482;2022-09-13T18:54:12;19.40;74.50
32506;DHT22;18955;51.224;8.482;2022-09-13T18:56:52;19.40;74.60
32506;DHT22;18955;51.224;8.482;2022-09-13T18:59:22;19.40;74.60
32506;DHT22;18955;51.224;8.482;2022-09-13T19:01:58;19.30;74.50
32506;DHT22;18955;51.224;8.482;2022-09-13T19:04:24;19.30;74.50
32506;DHT22;18955;51.224;8.482;2022-09-13T19:06:52;19.30;74.60
32506;DHT22;18955;51.224;8.482;2022-09-13T19:09:22;19.30;74.60
32506;DHT22;18955;51.224;8.482;2022-09-13T19:11:51;19.30;74.60
32506;DHT22;18955;51.224;8.482;2022-09-13T19:14:20;19.30;74.60
32506;DHT22;18955;51.224;8.482;2022-09-13T19:16:51;19.30;74.60
32506;DHT22;18955;51.224;8.482;2022-09-13T19:19:21;19.30;75.20
32506;DHT22;18955;51.224;8.482;2022-09-13T19:21:48;19.20;74.60
32506;DHT22;18955;51.224;8.482;2022-09-13T19:24:14;19.20;74.70
32506;DHT22;18955;51.224;8.482;2022-09-13T19:26:41;19.20;75.20
32506;DHT22;18955;51.224;8.482;2022-09-13T19:29:13;19.20;74.70